Flight Track Log - Related Links

Times and Time Zones

All times are in EDT time to prevent confusion due to time zone crossing. See the UPS77 flight status page for this flight to view local times or setup timezone preferences in your user account.

Time Position Orientation Groundspeed Altitude Reporting Facility
EDT Latitude Longitude Course Direction KTS MPH feet Rate Location/Type
Sun 04:34:08 AM 61.1780 -149.9990 165° South 20 23  Level FlightAware ADS-B
Sun 04:34:34 AM 61.1750 -149.9970 162° South 20 23 364 Level FlightAware ADS-B
Sun 04:35:15 AM 61.1720 -149.9950 162° South 29 33 419 Level FlightAware ADS-B
Sun 04:36:28 AM 61.1760 -150.0010 324° Northwest 88 101 550 Level FlightAware ADS-B
Sun 04:36:51 AM 61.1900 -150.0090 345° North 1,241 Level FlightAware ADS-B
Sun 04:37:26 AM 61.2190 -150.0260 344° North 195 224 1,200 1,672 Climbing FlightAware ADS-B
Sun 04:37:52 AM 61.2410 -150.0520 330° Northwest 211 243 1,700 1,412 Climbing FlightAware ADS-B
Sun 04:38:00 AM 61.2480 -150.0620 326° Northwest 211 243 2,000 2,211 Climbing FlightAware ADS-B
Sun 04:38:30 AM 61.2710 -150.0950 325° Northwest 206 237 3,100 1,548 Climbing FlightAware ADS-B
Sun 04:39:02 AM 61.2990 -150.1310 328° Northwest 238 274 3,600 900 Climbing FlightAware ADS-B
Sun 04:39:10 AM 61.3070 -150.1350 347° North 248 285 3,700 643 Climbing FlightAware ADS-B
Sun 04:39:30 AM 61.3290 -150.1230 15° North 268 308 3,900 833 Climbing FlightAware ADS-B
Sun 04:39:46 AM 61.3440 -150.0930 44° Northeast 278 320 4,200 1,286 Climbing FlightAware ADS-B
Sun 04:39:58 AM 61.3500 -150.0630 67° East 285 328 4,500 1,500 Climbing FlightAware ADS-B
Sun 04:40:10 AM 61.3520 -150.0310 83° East 290 334 4,800 2,000 Climbing FlightAware ADS-B
Sun 04:40:34 AM 61.3450 -149.9620 102° East 297 342 5,700 2,133 Climbing FlightAware ADS-B
Sun 04:40:55 AM 61.3390 -149.9060 103° East 301 346 6,400 2,250 Climbing FlightAware ADS-B
Sun 04:41:22 AM 61.3280 -149.8280 106° East 306 352 7,500 2,512 Climbing FlightAware ADS-B
Sun 04:41:38 AM 61.3230 -149.7830 103° East 307 353 8,200 2,455 Climbing FlightAware ADS-B
Sun 04:42:06 AM 61.3120 -149.7010 106° East 314 361 9,300 2,250 Climbing FlightAware ADS-B
Sun 04:42:18 AM 61.3080 -149.6690 105° East 313 360 9,700 1,607 Climbing FlightAware ADS-B
Sun 04:43:02 AM 61.2920 -149.5330 104° East 343 395 10,800 1,357 Climbing FlightAware ADS-B
Sun 04:43:42 AM 61.2820 -149.3990 99° East 370 426 11,600 1,171 Climbing FlightAware ADS-B
Sun 04:44:24 AM 61.2710 -149.2420 98° East 402 463 12,400 1,577 Climbing FlightAware ADS-B
Sun 04:49:13 AM 61.1830 -148.0820 98° East 462 532 20,300 1,600 Climbing FlightAware ADS-B
Sun 04:49:54 AM 61.1650 -147.8690 100° East 473 544 21,200 1,403 Climbing FlightAware ADS-B
Sun 04:50:30 AM 61.1520 -147.7090 99° East 477 549 22,100 848 Climbing FlightAware ADS-B
Sun 04:51:33 AM 61.1310 -147.4520 99° East 480 552 22,600 300 Climbing FlightAware ADS-B
Sun 04:52:10 AM 61.1200 -147.3100 99° East 480 552 22,600  Level FlightAware ADS-B
Sun 04:53:25 AM 61.0980 -147.0200 99° East 480 552 22,600  Level FlightAware ADS-B
Sun 04:54:01 AM 61.0870 -146.8810 99° East 480 552 22,600  Level FlightAware ADS-B
Sun 04:54:51 AM 61.0730 -146.6890 98° East 480 552 22,600 2,977 Level FlightAware ADS-B
Sun 04:56:10 AM 61.0167 -146.2000 98° East 490 564 29,000 2,763 Climbing Anchorage Center
Sun 04:57:10 AM 60.9833 -145.9333 104° East 480 552 29,000  Level Anchorage Center
Sun 04:58:11 AM 60.9500 -145.6667 104° East 480 552 29,000  Level Anchorage Center
Sun 04:59:11 AM 60.9333 -145.3833 97° East 480 552 29,000  Level Anchorage Center
Sun 05:00:12 AM 60.9000 -145.1167 104° East 480 552 29,000  Level Anchorage Center
Sun 05:01:12 AM 60.8667 -144.8500 104° East 480 552 29,000  Level Anchorage Center
Sun 05:02:12 AM 60.8333 -144.5667 103° East 480 552 29,000  Level Anchorage Center
Sun 05:03:13 AM 60.8167 -144.3000 97° East 480 552 29,000  Level Anchorage Center
Sun 05:04:13 AM 60.7833 -144.0500 105° East 470 541 29,000  Level Anchorage Center
Sun 05:05:13 AM 60.7500 -143.7167 101° East 480 552 29,000  Level Anchorage Center
Sun 05:06:14 AM 60.7167 -143.4500 104° East 480 552 29,000  Level Anchorage Center
Sun 05:07:14 AM 60.6833 -143.1833 104° East 470 541 29,000  Level Anchorage Center
Sun 05:08:14 AM 60.6500 -142.9333 105° East 460 529 29,000  Level Anchorage Center
Sun 05:09:15 AM 60.6333 -142.7167 99° East 470 541 29,000  Level Anchorage Center
Sun 05:10:15 AM 60.5833 -142.4167 109° East 460 529 29,000  Level Anchorage Center
Sun 05:11:15 AM 60.5500 -142.1500 104° East 470 541 29,000  Level Anchorage Center
Sun 05:12:16 AM 60.5167 -141.9000 105° East 470 541 29,000  Level Anchorage Center
Sun 05:13:16 AM 60.4833 -141.6333 104° East 470 541 29,000  Level Anchorage Center
Sun 05:14:17 AM 60.4500 -141.3833 105° East 470 541 29,000  Level Anchorage Center
Sun 05:15:17 AM 60.4167 -141.1333 105° East 460 529 29,000  Level Anchorage Center
Sun 05:16:17 AM 60.3833 -140.8833 105° East 460 529 29,000  Level Anchorage Center
Sun 05:17:18 AM 60.3500 -140.6500 106° East 440 506 29,000  Level Anchorage Center
Sun 05:18:18 AM 60.3167 -140.4000 105° East 440 506 29,000  Level Anchorage Center
Sun 05:19:18 AM 60.2833 -140.1500 105° East 450 518 29,000  Level Anchorage Center
Sun 05:20:19 AM 60.2500 -139.9167 106° East 460 529 29,000  Level Anchorage Center
Sun 05:21:19 AM 60.2000 -139.6667 112° Southeast 460 529 29,000  Level Anchorage Center
Sun 05:22:19 AM 60.1667 -139.4167 105° East 470 541 29,000  Level Anchorage Center
Sun 05:23:20 AM 60.1333 -139.1667 105° East 460 529 29,000  Level Anchorage Center
Sun 05:24:20 AM 60.1000 -138.9167 105° East 450 518 29,000  Level Anchorage Center
Sun 05:25:20 AM 60.0667 -138.7333 110° East 440 506 29,000  Level Anchorage Center
Sun 05:26:21 AM 60.0500 -138.4833 97° East 450 518 29,000  Level Anchorage Center
Sun 05:27:21 AM 60.0167 -138.2333 105° East 450 518 29,000 33 Level Anchorage Center
Sun 05:29:00 AM 59.9668 -137.8104 103° East  Level FlightAware Approximate
Sun 05:36:00 AM 59.7404 -136.0307 103° East  Level FlightAware Approximate
Sun 05:37:00 AM 59.7061 -135.7785 105° East  Level FlightAware Approximate
Sun 05:38:00 AM 59.6713 -135.5268 105° East  Level FlightAware Approximate
Sun 05:39:00 AM 59.6360 -135.2756 105° East  Level FlightAware Approximate
Sun 05:40:00 AM 59.6003 -135.0249 106° East  Level FlightAware Approximate
Sun 05:41:00 AM 59.5641 -134.7748 106° East  Level FlightAware Approximate
Sun 05:42:00 AM 59.5274 -134.5253 106° East  Level FlightAware Approximate
Sun 05:43:00 AM 59.4902 -134.2762 106° East  Level FlightAware Approximate
Sun 05:44:00 AM 59.4526 -134.0278 106° East  Level FlightAware Approximate
Sun 05:45:00 AM 59.4145 -133.7798 107° East  Level FlightAware Approximate
Sun 05:46:00 AM 59.3759 -133.5325 107° East  Level FlightAware Approximate
Sun 05:47:00 AM 59.3368 -133.2857 107° East  Level FlightAware Approximate
Sun 05:48:00 AM 59.2973 -133.0395 107° East  Level FlightAware Approximate
Sun 05:49:00 AM 59.2573 -132.7938 108° East  Level FlightAware Approximate
Sun 05:50:00 AM 59.2169 -132.5488 108° East  Level FlightAware Approximate
Sun 05:51:00 AM 59.1760 -132.3043 108° East  Level FlightAware Approximate
Sun 05:52:00 AM 59.1346 -132.0604 108° East  Level FlightAware Approximate
Sun 05:53:00 AM 59.0928 -131.8170 108° East  Level FlightAware Approximate
Sun 05:54:00 AM 59.0505 -131.5743 109° East  Level FlightAware Approximate
Sun 05:55:00 AM 59.0078 -131.3322 109° East  Level FlightAware Approximate
Sun 05:56:00 AM 58.9647 -131.0907 109° East  Level FlightAware Approximate
Sun 05:57:00 AM 58.9210 -130.8498 109° East  Level FlightAware Approximate
Sun 05:58:00 AM 58.8770 -130.6095 109° East  Level FlightAware Approximate
Sun 05:59:00 AM 58.8325 -130.3698 110° East  Level FlightAware Approximate
Sun 06:00:00 AM 58.7875 -130.1308 110° East  Level FlightAware Approximate
Sun 06:01:00 AM 58.7421 -129.8923 110° East  Level FlightAware Approximate
Sun 06:02:00 AM 58.6963 -129.6545 110° East  Level FlightAware Approximate
Sun 06:03:00 AM 58.6500 -129.4174 110° East  Level FlightAware Approximate
Sun 06:04:00 AM 58.6033 -129.1808 111° Southeast  Level FlightAware Approximate
Sun 06:05:00 AM 58.5562 -128.9449 111° Southeast  Level FlightAware Approximate
Sun 06:06:00 AM 58.5086 -128.7096 111° Southeast  Level FlightAware Approximate
Sun 06:07:00 AM 58.4606 -128.4750 111° Southeast  Level FlightAware Approximate
Sun 06:08:00 AM 58.4122 -128.2410 111° Southeast  Level FlightAware Approximate
Sun 06:09:00 AM 58.3633 -128.0076 112° Southeast  Level FlightAware Approximate
Sun 06:10:00 AM 58.3141 -127.7749 112° Southeast  Level FlightAware Approximate
Sun 06:11:00 AM 58.2644 -127.5428 112° Southeast  Level FlightAware Approximate
Sun 06:12:00 AM 58.2143 -127.3114 112° Southeast  Level FlightAware Approximate
Sun 06:13:00 AM 58.1637 -127.0807 112° Southeast  Level FlightAware Approximate
Sun 06:14:00 AM 58.1128 -126.8506 113° Southeast  Level FlightAware Approximate
Sun 06:15:00 AM 58.0614 -126.6212 113° Southeast  Level FlightAware Approximate
Sun 06:16:00 AM 58.0097 -126.3924 113° Southeast  Level FlightAware Approximate
Sun 06:17:00 AM 57.9577 -126.1641 113° Southeast  Level FlightAware Approximate
Sun 06:18:00 AM 57.9054 -125.9364 113° Southeast  Level FlightAware Approximate
Sun 06:19:00 AM 57.8527 -125.7094 113° Southeast  Level FlightAware Approximate
Sun 06:20:00 AM 57.7996 -125.4830 114° Southeast  Level FlightAware Approximate
Sun 06:21:00 AM 57.7461 -125.2573 114° Southeast  Level FlightAware Approximate
Sun 06:22:00 AM 57.6922 -125.0323 114° Southeast  Level FlightAware Approximate
Sun 06:23:00 AM 57.6379 -124.8080 114° Southeast  Level FlightAware Approximate
Sun 06:24:00 AM 57.5832 -124.5843 114° Southeast  Level FlightAware Approximate
Sun 06:25:00 AM 57.5281 -124.3613 115° Southeast  Level FlightAware Approximate
Sun 06:26:00 AM 57.4726 -124.1390 115° Southeast  Level FlightAware Approximate
Sun 06:26:18 AM 57.5500 -124.5333 116° Southeast 470 541 31,000  Level Edmonton Center
Sun 06:27:00 AM 57.4168 -123.9173 115° Southeast  Level FlightAware Approximate
Sun 06:27:18 AM 57.5000 -124.3333 115° Southeast 470 541 31,000  Level Edmonton Center
Sun 06:28:00 AM 57.3605 -123.6963 115° Southeast  Level FlightAware Approximate
Sun 06:28:18 AM 57.4500 -124.0833 110° East 470 541 31,000  Level Edmonton Center
Sun 06:29:00 AM 57.3039 -123.4761 115° Southeast  Level FlightAware Approximate
Sun 06:29:18 AM 57.3833 -123.8833 122° Southeast 470 541 31,000  Level Edmonton Center
Sun 06:30:00 AM 57.2468 -123.2564 116° Southeast  Level FlightAware Approximate
Sun 06:30:18 AM 57.3167 -123.6667 120° Southeast 470 541 31,000  Level Edmonton Center
Sun 06:31:00 AM 57.1894 -123.0375 116° Southeast  Level FlightAware Approximate
Sun 06:31:18 AM 57.2667 -123.4333 112° Southeast 470 541 30,900  Level Edmonton Center
Sun 06:32:18 AM 57.2167 -123.2167 113° Southeast 470 541 31,000 50 Climbing Edmonton Center
Sun 06:33:18 AM 57.1500 -123.0167 122° Southeast 470 541 31,000  Level Edmonton Center
Sun 06:34:18 AM 57.1000 -122.8000 113° Southeast 470 541 31,000  Level Edmonton Center
Sun 06:35:18 AM 57.0500 -122.5833 113° Southeast 470 541 31,000  Level Edmonton Center
Sun 06:36:18 AM 56.9833 -122.3667 119° Southeast 470 541 31,000  Level Edmonton Center
Sun 06:37:18 AM 56.9167 -122.1333 118° Southeast 480 552 31,000  Level Edmonton Center
Sun 06:38:18 AM 56.8667 -121.9167 113° Southeast 470 541 31,000  Level Edmonton Center
Sun 06:39:18 AM 56.8000 -121.7000 119° Southeast 480 552 31,000  Level Edmonton Center
Sun 06:40:18 AM 56.7500 -121.4833 113° Southeast 480 552 31,000  Level Edmonton Center
Sun 06:41:18 AM 56.6667 -121.2667 125° Southeast 470 541 31,000  Level Edmonton Center
Sun 06:42:18 AM 56.6167 -121.0500 113° Southeast 480 552 31,000  Level Edmonton Center
Sun 06:43:18 AM 56.5500 -120.8333 119° Southeast 480 552 31,000  Level Edmonton Center
Sun 06:44:18 AM 56.4833 -120.6167 119° Southeast 480 552 31,000  Level Edmonton Center
Sun 06:46:18 AM 56.3667 -120.1833 116° Southeast 480 552 31,000  Level Edmonton Center
Sun 06:47:18 AM 56.3000 -119.9667 119° Southeast 480 552 31,000  Level Edmonton Center
Sun 06:48:18 AM 56.2333 -119.7500 119° Southeast 490 564 31,000  Level Edmonton Center
Sun 06:49:18 AM 56.1667 -119.5500 121° Southeast 490 564 31,000  Level Edmonton Center
Sun 06:50:18 AM 56.1000 -119.3000 115° Southeast 490 564 31,000  Level Edmonton Center
Sun 06:51:18 AM 56.0333 -119.1167 123° Southeast 490 564 31,000  Level Edmonton Center
Sun 06:52:18 AM 55.9667 -118.9167 121° Southeast 490 564 31,000  Level Edmonton Center
Sun 06:53:18 AM 55.8833 -118.6667 121° Southeast 490 564 31,000  Level Edmonton Center
Sun 06:59:34 AM 55.4810 -117.3000 121° Southeast 31,100  Climbing FlightAware ADS-B
Sun 07:03:28 AM 55.2090 -116.5070 121° Southeast 488 562 31,000 -21 Descending FlightAware ADS-B
Sun 07:04:19 AM 55.1580 -116.3600 121° Southeast 488 562 31,000  Level FlightAware ADS-B
Sun 07:04:53 AM 55.1250 -116.2620 120° Southeast 488 562 31,000  Level FlightAware ADS-B
Sun 07:05:40 AM 55.0780 -116.1270 121° Southeast 488 562 31,000  Level FlightAware ADS-B
Sun 07:06:30 AM 54.9920 -115.8930 123° Southeast 496 571 31,000  Level FlightAware ADS-B
Sun 07:07:31 AM 54.9210 -115.6980 122° Southeast 495 570 31,000  Level FlightAware ADS-B
Sun 07:08:13 AM 54.8630 -115.5370 122° Southeast 490 564 31,000  Level FlightAware ADS-B
Sun 07:08:53 AM 54.8210 -115.4210 122° Southeast 490 564 31,000  Level FlightAware ADS-B
Sun 07:09:38 AM 54.7620 -115.2600 122° Southeast 492 566 31,000  Level FlightAware ADS-B
Sun 07:10:21 AM 54.7220 -115.1520 123° Southeast 492 566 31,000  Level FlightAware ADS-B
Sun 07:11:58 AM 54.5990 -114.8220 123° Southeast 494 568 31,000  Level FlightAware ADS-B
Sun 07:12:39 AM 54.5420 -114.6680 122° Southeast 494 568 31,000  Level FlightAware ADS-B
Sun 07:13:39 AM 54.4630 -114.4600 123° Southeast 495 570 31,000  Level FlightAware ADS-B
Sun 07:14:19 AM 54.4160 -114.3370 123° Southeast 497 572 31,000  Level FlightAware ADS-B
Sun 07:14:54 AM 54.3690 -114.2130 123° Southeast 497 572 31,000  Level FlightAware ADS-B
Sun 07:18:18 AM 54.1550 -113.6540 123° Southeast 501 577 31,000  Level FlightAware ADS-B
Sun 07:19:18 AM 54.0167 -113.3833 123° Southeast 490 564 31,000 -50 Level Edmonton Center
Sun 07:20:18 AM 53.9333 -113.1667 123° Southeast 490 564 30,900  Descending Edmonton Center
Sun 07:21:18 AM 53.8667 -113.0167 127° Southeast 480 552 31,000 50 Climbing Edmonton Center
Sun 07:22:18 AM 53.7833 -112.8167 125° Southeast 480 552 31,000  Level Edmonton Center
Sun 07:23:18 AM 53.7000 -112.6000 123° Southeast 490 564 31,000  Level Edmonton Center
Sun 07:28:51 AM 53.4350 -111.8590 123° Southeast 488 562 31,000 312 Level FlightAware ADS-B
Sun 07:29:43 AM 53.2500 -111.4550 127° Southeast 477 549 33,000 1,062 Climbing FlightAware ADS-B
Sun 07:30:44 AM 53.1530 -111.2290 126° Southeast 479 551 33,000  Level FlightAware ADS-B
Sun 07:31:19 AM 53.1020 -111.1110 126° Southeast 490 564 33,000  Level FlightAware ADS-B
Sun 07:32:29 AM 53.0080 -110.8940 126° Southeast 496 571 33,000  Level FlightAware ADS-B
Sun 07:33:14 AM 52.9540 -110.7530 122° Southeast 499 574 33,000  Level FlightAware ADS-B
Sun 07:34:41 AM 52.8570 -110.4780 120° Southeast 499 574 33,000  Level FlightAware ADS-B
Sun 07:35:24 AM 52.8060 -110.3320 120° Southeast 500 575 33,000  Level FlightAware ADS-B
Sun 07:37:30 AM 52.6590 -109.9190 120° Southeast 500 575 33,000  Level FlightAware ADS-B
Sun 07:38:09 AM 52.6140 -109.7910 120° Southeast 500 575 33,000  Level FlightAware ADS-B
Sun 07:38:54 AM 52.5590 -109.6410 121° Southeast 500 575 33,000  Level FlightAware ADS-B
Sun 07:39:36 AM 52.5170 -109.5220 120° Southeast 500 575 33,000  Level FlightAware ADS-B
Sun 07:40:15 AM 52.4660 -109.3840 121° Southeast 33,000  Level FlightAware ADS-B
Sun 07:40:45 AM 52.4167 -109.3333 121° Southeast 500 575 33,000  Level Winnipeg Center
Sun 07:41:18 AM 52.3500 -109.1667 123° Southeast 500 575 33,000  Level Edmonton Center
Sun 07:42:18 AM 52.3000 -109.0000 116° Southeast 500 575 33,000  Level Edmonton Center
Sun 07:43:18 AM 52.2167 -108.7667 120° Southeast 510 587 33,000  Level Edmonton Center
Sun 07:44:18 AM 52.1333 -108.6000 129° Southeast 510 587 33,000  Level Edmonton Center
Sun 07:45:18 AM 52.0667 -108.3667 115° Southeast 510 587 33,000  Level Edmonton Center
Sun 07:46:18 AM 51.9833 -108.2000 129° Southeast 500 575 33,000  Level Edmonton Center
Sun 07:47:18 AM 51.9167 -108.0000 118° Southeast 490 564 33,000  Level Edmonton Center
Sun 07:48:18 AM 51.8500 -107.8000 118° Southeast 490 564 33,000  Level Edmonton Center
Sun 07:49:18 AM 51.7667 -107.6167 126° Southeast 500 575 33,000  Level Edmonton Center
Sun 07:50:18 AM 51.7000 -107.4167 118° Southeast 500 575 33,000  Level Edmonton Center
Sun 07:51:18 AM 51.6167 -107.2167 124° Southeast 510 587 33,000  Level Edmonton Center
Sun 07:52:18 AM 51.5333 -107.0500 129° Southeast 510 587 33,000  Level Edmonton Center
Sun 07:53:18 AM 51.4500 -106.8333 122° Southeast 500 575 33,000  Level Edmonton Center
Sun 07:54:18 AM 51.4000 -106.6667 116° Southeast 500 575 33,000  Level Edmonton Center
Sun 07:55:18 AM 51.3167 -106.4833 126° Southeast 500 575 33,000  Level Edmonton Center
Sun 07:56:18 AM 51.2333 -106.2833 124° Southeast 510 587 33,000  Level Edmonton Center
Sun 08:02:26 AM 50.9150 -105.4640 124° Southeast 520 598 33,000  Level FlightAware ADS-B
Sun 08:03:41 AM 50.8020 -105.2010 124° Southeast 509 586 33,000  Level FlightAware ADS-B
Sun 08:05:12 AM 50.6340 -104.8040 124° Southeast 513 590 33,000 22 Level FlightAware ADS-B
Sun 08:08:11 AM 50.3900 -104.2560 125° Southeast 521 600 33,100  Climbing FlightAware ADS-B
Sun 08:08:47 AM 50.3040 -104.0740 126° Southeast 523 602 33,000 -25 Descending FlightAware ADS-B
Sun 08:12:13 AM 50.0560 -103.5490 126° Southeast 523 602 33,000  Level FlightAware ADS-B
Sun 08:13:06 AM 49.9920 -103.4120 126° Southeast 523 602 33,000  Level FlightAware ADS-B
Sun 08:14:33 AM 49.8870 -103.1870 126° Southeast 523 602 33,000  Level FlightAware ADS-B
Sun 08:15:10 AM 49.8420 -103.0920 126° Southeast 523 602 33,000 -79 Level FlightAware ADS-B
Sun 08:15:49 AM 49.6417 -102.7203 126° Southeast 527 606 32,900  Descending Minneapolis Center
Sun 08:16:45 AM 49.5333 -102.5333 132° Southeast 530 610 33,000 52 Climbing Winnipeg Center
Sun 08:17:45 AM 49.4333 -102.3500 130° Southeast 530 610 33,000  Level Winnipeg Center
Sun 08:18:45 AM 49.3500 -102.1833 127° Southeast 530 610 33,000  Level Winnipeg Center
Sun 08:19:45 AM 49.2500 -101.9833 127° Southeast 540 621 33,000  Level Winnipeg Center
Sun 08:20:45 AM 49.1500 -101.8333 136° Southeast 540 621 33,000  Level Winnipeg Center
Sun 08:26:10 AM 48.6850 -100.8810 136° Southeast 535 616 33,000  Level FlightAware ADS-B
Sun 08:26:44 AM 48.6400 -100.7970 129° Southeast 535 616 33,000 34 Level FlightAware ADS-B
Sun 08:29:04 AM 48.4120 -100.3750 129° Southeast 540 621 33,100  Climbing FlightAware ADS-B
Sun 08:30:16 AM 48.2830 -100.1430 130° Southeast 534 615 33,000 -61 Descending FlightAware ADS-B
Sun 08:30:43 AM 48.2390 -100.0640 130° Southeast 533 613 33,000  Level FlightAware ADS-B
Sun 08:31:33 AM 48.1630 -99.9280 130° Southeast 531 611 33,000  Level FlightAware ADS-B
Sun 08:32:29 AM 48.0720 -99.7650 130° Southeast 530 610 33,000  Level FlightAware ADS-B
Sun 08:33:53 AM 47.9380 -99.5270 130° Southeast 532 612 33,000  Level FlightAware ADS-B
Sun 08:34:37 AM 47.8690 -99.4050 130° Southeast 532 612 33,000 79 Level FlightAware ADS-B
Sun 08:35:09 AM 47.8190 -99.3170 130° Southeast 532 612 33,100 90 Climbing FlightAware ADS-B
Sun 08:35:44 AM 47.7630 -99.2190 130° Southeast 532 612 33,100 -57 Level FlightAware ADS-B
Sun 08:36:55 AM 47.6630 -99.0420 130° Southeast 532 612 33,000 -45 Descending FlightAware ADS-B
Sun 08:37:57 AM 47.5500 -98.8480 131° Southeast 533 613 33,000  Level FlightAware ADS-B
Sun 08:39:16 AM 47.4300 -98.6410 131° Southeast 533 613 33,000  Level FlightAware ADS-B
Sun 08:40:17 AM 47.3480 -98.4960 130° Southeast 533 613 33,000  Level FlightAware ADS-B
Sun 08:40:59 AM 47.2650 -98.3590 132° Southeast 533 613 33,000  Level FlightAware ADS-B
Sun 08:41:48 AM 47.1990 -98.2430 130° Southeast 533 613 33,000  Level FlightAware ADS-B
Sun 08:42:37 AM 47.1330 -98.1280 130° Southeast 533 613 33,000  Level FlightAware ADS-B
Sun 08:43:19 AM 47.0310 -97.9670 133° Southeast 535 616 33,000  Level FlightAware ADS-B
Sun 08:43:59 AM 46.9650 -97.8570 131° Southeast 536 617 33,000  Level FlightAware ADS-B
Sun 08:44:38 AM 46.9040 -97.7560 131° Southeast 537 618 33,000  Level FlightAware ADS-B
Sun 08:44:55 AM 46.8730 -97.7050 132° Southeast 538 619 33,000  Level FlightAware ADS-B
Sun 08:46:19 AM 46.7444 -97.4928 132° Southeast 540 621 33,000  Level Minneapolis Center
Sun 08:47:20 AM 46.6447 -97.3300 132° Southeast 543 625 33,000  Level Minneapolis Center
Sun 08:53:34 AM 46.1510 -96.5000 132° Southeast 538 619 33,000  Level FlightAware ADS-B
Sun 08:54:35 AM 46.0660 -96.3590 131° Southeast 538 619 33,000  Level FlightAware ADS-B
Sun 08:55:29 AM 45.8336 -96.0378 131° Southeast 534 615 33,000 52 Level Minneapolis Center
Sun 08:56:30 AM 45.7328 -95.8811 133° Southeast 535 616 33,100  Climbing Minneapolis Center
Sun 09:01:47 AM 45.2140 -95.0900 133° Southeast 497 572 33,000 -15 Descending FlightAware ADS-B
Sun 09:03:20 AM 45.0560 -94.8540 133° Southeast 497 572 33,000 43 Level FlightAware ADS-B
Sun 09:04:05 AM 44.9850 -94.7490 134° Southeast 496 571 33,100  Climbing FlightAware ADS-B
Sun 09:05:01 AM 44.9080 -94.6330 133° Southeast 494 568 33,000 -60 Descending FlightAware ADS-B
Sun 09:05:45 AM 44.8270 -94.5160 134° Southeast 486 559 33,000  Level FlightAware ADS-B
Sun 09:06:42 AM 44.7550 -94.4060 133° Southeast 485 558 33,000  Level FlightAware ADS-B
Sun 09:07:25 AM 44.6760 -94.2940 135° Southeast 473 544 33,000  Level FlightAware ADS-B
Sun 09:08:05 AM 44.6160 -94.2070 134° Southeast 470 541 33,000  Level FlightAware ADS-B
Sun 09:08:45 AM 44.5580 -94.1230 134° Southeast 466 536 33,000  Level FlightAware ADS-B
Sun 09:09:24 AM 44.5090 -94.0510 134° Southeast 466 536 33,000  Level FlightAware ADS-B
Sun 09:10:36 AM 44.4170 -93.9180 134° Southeast 466 536 33,000  Level FlightAware ADS-B
Sun 09:12:42 AM 44.1940 -93.6000 134° Southeast 470 541 33,000  Level FlightAware ADS-B
Sun 09:13:18 AM 44.1410 -93.5240 134° Southeast 465 535 33,000  Level FlightAware ADS-B
Sun 09:13:58 AM 44.0800 -93.4380 135° Southeast 462 532 33,000  Level FlightAware ADS-B
Sun 09:14:46 AM 44.0090 -93.3380 135° Southeast 461 531 33,000  Level FlightAware ADS-B
Sun 09:14:54 AM 43.9950 -93.3190 136° Southeast 460 529 33,000  Level FlightAware ADS-B
Sun 09:15:51 AM 43.9244 -93.2192 136° Southeast 459 528 33,000  Level Minneapolis Center
Sun 09:16:52 AM 43.8356 -93.0947 135° Southeast 458 527 33,000  Level Minneapolis Center
Sun 09:22:44 AM 43.3120 -92.3730 135° Southeast 469 540 33,000 15 Level FlightAware ADS-B
Sun 09:23:31 AM 43.2340 -92.2670 135° Southeast 471 542 33,100  Climbing FlightAware ADS-B
Sun 09:26:38 AM 42.9240 -91.8500 135° Southeast 469 540 33,000 -25 Descending FlightAware ADS-B
Sun 09:27:35 AM 42.8360 -91.7330 136° Southeast 468 539 33,000  Level FlightAware ADS-B
Sun 09:28:25 AM 42.7590 -91.6300 135° Southeast 468 539 33,000  Level FlightAware ADS-B
Sun 09:29:57 AM 42.6160 -91.4420 136° Southeast 472 543 33,000  Level FlightAware ADS-B
Sun 09:30:33 AM 42.5590 -91.3670 136° Southeast 473 544 33,000  Level FlightAware ADS-B
Sun 09:31:08 AM 42.5040 -91.2960 136° Southeast 475 547 33,000 61 Level FlightAware ADS-B
Sun 09:32:11 AM 42.4060 -91.1670 136° Southeast 477 549 33,100  Climbing FlightAware ADS-B
Sun 09:32:50 AM 42.3450 -91.0870 136° Southeast 479 551 33,000 -63 Descending FlightAware ADS-B
Sun 09:33:46 AM 42.2530 -90.9680 136° Southeast 480 552 33,000  Level FlightAware ADS-B
Sun 09:35:36 AM 42.0770 -90.7420 136° Southeast 478 550 33,000  Level FlightAware ADS-B
Sun 09:36:19 AM 42.0100 -90.6560 136° Southeast 476 548 33,000  Level FlightAware ADS-B
Sun 09:37:18 AM 41.9130 -90.5320 136° Southeast 476 548 33,000  Level FlightAware ADS-B
Sun 09:38:02 AM 41.8440 -90.4450 137° Southeast 478 550 33,000  Level FlightAware ADS-B
Sun 09:38:38 AM 41.7870 -90.3720 136° Southeast 478 550 33,000 71 Level FlightAware ADS-B
Sun 09:39:26 AM 41.7120 -90.2780 137° Southeast 480 552 33,100 47 Climbing FlightAware ADS-B
Sun 09:40:47 AM 41.5800 -90.1110 137° Southeast 483 556 33,100 -37 Level FlightAware ADS-B
Sun 09:42:07 AM 41.4500 -89.9480 137° Southeast 477 549 33,000 -48 Descending FlightAware ADS-B
Sun 09:42:52 AM 41.3750 -89.8560 137° Southeast 471 542 33,000  Level FlightAware ADS-B
Sun 09:43:36 AM 41.3050 -89.7680 137° Southeast 468 539 33,000  Level FlightAware ADS-B
Sun 09:44:18 AM 41.2390 -89.6860 137° Southeast 466 536 33,000  Level FlightAware ADS-B
Sun 09:44:54 AM 41.1820 -89.6160 137° Southeast 469 540 33,000  Level FlightAware ADS-B
Sun 09:45:41 AM 41.1120 -89.5190 134° Southeast 469 540 33,000 47 Level FlightAware ADS-B
Sun 09:47:03 AM 40.9920 -89.3450 132° Southeast 469 540 33,100  Climbing FlightAware ADS-B
Sun 09:47:48 AM 40.9260 -89.2500 133° Southeast 466 536 33,000 -68 Descending FlightAware ADS-B
Sun 09:48:31 AM 40.8650 -89.1630 133° Southeast 464 534 33,000  Level FlightAware ADS-B
Sun 09:49:15 AM 40.8020 -89.0730 133° Southeast 463 533 33,000  Level FlightAware ADS-B
Sun 09:49:53 AM 40.7440 -88.9910 133° Southeast 464 534 33,000 -191 Level FlightAware ADS-B
Sun 09:50:49 AM 40.6640 -88.8770 133° Southeast 471 542 32,700 -574 Descending FlightAware ADS-B
Sun 09:51:27 AM 40.6060 -88.7940 133° Southeast 472 543 32,100 -918 Descending FlightAware ADS-B
Sun 09:52:27 AM 40.5180 -88.6690 133° Southeast 479 551 31,200 -933 Descending FlightAware ADS-B
Sun 09:52:57 AM 40.4710 -88.6030 133° Southeast 479 551 30,700 -1,040 Descending FlightAware ADS-B
Sun 09:53:42 AM 40.4030 -88.5070 133° Southeast 483 556 29,900 -1,000 Descending FlightAware ADS-B
Sun 09:54:21 AM 40.3430 -88.4240 133° Southeast 483 556 29,300 -941 Descending FlightAware ADS-B
Sun 09:55:24 AM 40.2490 -88.2920 133° Southeast 482 555 28,300 -971 Descending FlightAware ADS-B
Sun 09:56:06 AM 40.1850 -88.2030 133° Southeast 479 551 27,600 -690 Descending FlightAware ADS-B
Sun 09:57:17 AM 40.0780 -88.0540 133° Southeast 476 548 27,000 -336 Descending FlightAware ADS-B
Sun 09:57:53 AM 40.0210 -87.9760 134° Southeast 476 548 27,000  Level FlightAware ADS-B
Sun 09:58:26 AM 39.9720 -87.9080 133° Southeast 475 547 27,000  Level FlightAware ADS-B
Sun 09:59:11 AM 39.9040 -87.8140 133° Southeast 474 545 27,000 -82 Level FlightAware ADS-B
Sun 09:59:39 AM 39.8610 -87.7550 134° Southeast 476 548 26,900 -514 Descending FlightAware ADS-B
Sun 10:00:21 AM 39.8100 -87.6858 134° Southeast 473 544 26,400 -865 Descending Indianapolis Center
Sun 10:01:23 AM 39.7189 -87.5619 134° Southeast 475 547 25,400 -968 Descending Indianapolis Center
Sun 10:02:25 AM 39.6314 -87.4419 133° Southeast 464 534 24,400 -1,065 Descending Indianapolis Center
Sun 10:03:27 AM 39.5253 -87.3000 134° Southeast 460 529 23,200 -1,065 Descending Indianapolis Center
Sun 10:04:29 AM 39.4175 -87.2181 150° Southeast 456 525 22,200 -968 Descending Indianapolis Center
Sun 10:05:31 AM 39.2969 -87.1658 161° South 458 527 21,200 -968 Descending Indianapolis Center
Sun 10:06:33 AM 39.1794 -87.1161 162° South 450 518 20,200 -976 Descending Indianapolis Center
Sun 10:07:34 AM 39.0681 -87.0667 161° South 445 512 19,200 -927 Descending Indianapolis Center
Sun 10:08:36 AM 38.9761 -86.9300 131° Southeast 432 497 18,300 -1,314 Descending Indianapolis Center
Sun 10:14:25 AM 38.6610 -86.2280 131° Southeast 341 392 10,200 -1,358 Descending FlightAware ADS-B
Sun 10:14:47 AM 38.6400 -86.1980 132° Southeast 329 379 9,900 -581 Descending FlightAware ADS-B
Sun 10:16:29 AM 38.5500 -86.0640 131° Southeast 293 337 9,000 -1,241 Descending FlightAware ADS-B
Sun 10:18:10 AM 38.4530 -85.9220 131° Southeast 270 311 5,700 -1,727 Descending FlightAware ADS-B
Sun 10:18:48 AM 38.4220 -85.8760 131° Southeast 260 299 5,000 -1,186 Descending FlightAware ADS-B
Sun 10:19:36 AM 38.3840 -85.8220 132° Southeast 254 292 4,000 -1,069 Descending FlightAware ADS-B
Sun 10:22:10 AM 38.2270 -85.7620 163° South 172 198 1,400 -956 Descending FlightAware ADS-B
Sun 10:22:38 AM 38.2050 -85.7550 166° South 173 199 1,100 -764 Descending FlightAware ADS-B
Sun 10:23:05 AM 38.1850 -85.7480 165° South 169 194 700 -889 Descending FlightAware ADS-B
Sun 10:23:41 AM 38.1710 -85.7430 164° South 100 115 -1,167 Descending FlightAware ADS-B
Sun 10:25:40 AM 38.1590 -85.7360 155° Southeast 18 21  Level FlightAware ADS-B
Sun 10:30:00 AM 38.1667 -85.7333 142° Southeast  Level FlightAware Approximate

Login

Don't have an account? Register now (free) for customized features, flight alerts, and more!